Impacts TAF Board INFO
FOR SITUATIONAL AWARENESS. NOT TO BE USED FOR FLIGHT PLANNING PURPOSES.
IDs:

KCLE - Cleveland/Hopkins In, OH, US

Issued at 2324 UTC 24 Mar 2017
Updated at 0359 UTC 25 Mar 2017
Potential Impact None Slight Moderate High
Time0351Z 25/04Z 25/05Z 25/06Z 25/07Z 25/08Z 25/09Z 25/10Z 25/11Z 25/12Z 25/13Z 25/14Z 25/15Z 25/16Z
Type OBS PRVL PRVL PRVL PRVL PRVL PRVL PRVL PRVL PRVL PRVL PRVL PRVL PRVL
VIS 10 >6 >6 >6 >6 >6 >6 >6 >6 >6 >6 >6 >6 >6
CIG 250 120 60 60 60 60 60 60 60 60 60 35 35 25
Cover BKN BKN BKN BKN BKN BKN BKN BKN BKN BKN BKN OVC OVC OVC
FltCat VFR VFR VFR VFR VFR VFR VFR VFR VFR VFR VFR VFR VFR MVFR
WX -- -- -- -- -- -- -- -- -- -- -- -- -- --
WDir 200 220 230 230 230 230 230 230 230 230 230 VRB VRB 30
WSpd 11 14 7 7 7 7 7 7 7 7 7 3 3 10
WGst -- -- -- -- -- -- -- -- -- -- -- -- -- --

Raw TAF
KCLE 242324Z 2500/2606 22014KT P6SM FEW050 BKN120
  FM250500 23007KT P6SM BKN060
  FM251400 VRB03KT P6SM BKN035 OVC060
  FM251600 03010KT P6SM SCT012 OVC025
  FM260300 07006KT P6SM BKN035


Raw METAR
KCLE 250351Z 20011KT 10SM BKN250 19/11 A3007 RMK AO2 SLP181 T01940106
KCLE 250251Z 21010KT 10SM BKN250 20/10 A3008 RMK AO2 SLP184 T02000100 51010
KCLE 250151Z 21013KT 10SM BKN250 21/11 A3007 RMK AO2 SLP180 T02060106
KCLE 250051Z 21012KT 10SM FEW060 BKN250 21/11 A3006 RMK AO2 SLP178 T02110106

METAR Board
Radar Display
Forecast Discussion

FOR SITUATIONAL AWARENESS. NOT TO BE USED FOR FLIGHT PLANNING PURPOSES.

Page loaded:  03:59 UTC  |   08:59 PM Pacific  |   09:59 PM Mountain  |   10:59 PM Central  |   11:59 PM Eastern

 

ADVISORIES

FORECASTS

FORECASTS

OBSERVATIONS

USER TOOLS

ABOUT US